Barking Sands Airport Kekaha US
ICAO: PHBK
IATA:
Category: Medium
Scheduled Services:

Elevation: 23 ft
TransAlt. 18000 ft.

Airport Communications:
HONOLULU CNTR:126.5
RANGE OUTRIDER:32.285
TWR:126.2
UNICOM:122.8

PHBK Zoom In..

If you have problems with the map follow the link
https://www.worldairports.se/pages/airport.php?
ICAO=PHBK

Runways:

(A) RW 16 length 6002 ft width 146 ft
---- / hdg 160

(B) RW 34 length 6002 ft width 146 ft
---- / hdg 340

Location; PHBK
Day. 11 / Time. 12.56 Zulu
* Altimeter: 30.03
* Temperature: 22° c. 71.6°f.
* Wind from: 080° Speed 05 kn.
Dewpoint: 17° c.
Visibility: 10 Statute Miles.
Clouds: Clear (automated report).

PHBK 111256Z AUTO 08005KT 10SM CLR 22/17 A3003 RMK AO2 SLP171 T02170172


Wind From 080°
Speed 05 kn.

 
 
jpsmedia worldairports.se 2019   terms of use